Wetterstation Oberdrees
Wetterdaten: aktuell Montag, 23.05.2022 05:10
Datum Zeit Temp. A. Feuchte A. Luftdruck Regen Wind Richtung Richtung Taupunkt Windchill Windben
23.05.2022 05:10 14,7 C 81 % 1007,8 hPa 0,0 l/m 0,0 km/h (0 Bft) O-SO 123 11,5 C 14,7 C 0,0 km/h (0 Bft)
23.05.2022 05:05 14,6 C 81 % 1007,8 hPa 0,0 l/m 0,0 km/h (0 Bft) O-SO 121 11,4 C 14,6 C 0,0 km/h (0 Bft)
23.05.2022 05:00 14,6 C 81 % 1007,8 hPa 0,0 l/m 0,0 km/h (0 Bft) O-SO 121 11,4 C 14,6 C 0,0 km/h (0 Bft)
23.05.2022 04:55 14,6 C 82 % 1007,9 hPa 0,0 l/m 0,0 km/h (0 Bft) O-SO 121 11,6 C 14,6 C 0,0 km/h (0 Bft)
23.05.2022 04:50 14,5 C 82 % 1008,0 hPa 0,0 l/m 0,0 km/h (0 Bft) O-SO 121 11,5 C 14,5 C 0,0 km/h (0 Bft)
23.05.2022 04:45 14,5 C 82 % 1008,0 hPa 0,0 l/m 0,0 km/h (0 Bft) O-SO 121 11,5 C 14,5 C 0,0 km/h (0 Bft)
23.05.2022 04:40 14,5 C 82 % 1008,1 hPa 0,0 l/m 0,0 km/h (0 Bft) O-SO 121 11,5 C 14,5 C 0,0 km/h (0 Bft)
23.05.2022 04:35 14,4 C 83 % 1008,1 hPa 0,0 l/m 0,7 km/h (0 Bft) O-SO 121 11,5 C 14,4 C 3,2 km/h (1 Bft)
23.05.2022 04:30 14,3 C 83 % 1008,3 hPa 0,0 l/m 0,0 km/h (0 Bft) O-SO 121 11,5 C 14,3 C 0,0 km/h (0 Bft)
23.05.2022 04:25 14,3 C 84 % 1008,3 hPa 0,0 l/m 0,0 km/h (0 Bft) O-SO 121 11,6 C 14,3 C 0,0 km/h (0 Bft)
23.05.2022 04:20 14,3 C 84 % 1008,3 hPa 0,0 l/m 0,0 km/h (0 Bft) O-SO 121 11,6 C 14,3 C 0,0 km/h (0 Bft)
23.05.2022 04:15 14,2 C 85 % 1008,5 hPa 0,0 l/m 0,2 km/h (0 Bft) O-SO 121 11,7 C 14,2 C 1,6 km/h (1 Bft)
23.05.2022 04:10 14,2 C 84 % 1008,5 hPa 0,0 l/m 0,0 km/h (0 Bft) O-SO 121 11,5 C 14,2 C 0,0 km/h (0 Bft)
23.05.2022 04:05 14,2 C 85 % 1008,5 hPa 0,0 l/m 0,0 km/h (0 Bft) O-SO 120 11,7 C 14,2 C 0,0 km/h (0 Bft)
23.05.2022 04:00 14,1 C 85 % 1008,5 hPa 0,0 l/m 0,0 km/h (0 Bft) O-SO 120 11,6 C 14,1 C 0,0 km/h (0 Bft)
23.05.2022 03:55 14,0 C 86 % 1008,4 hPa 0,0 l/m 0,0 km/h (0 Bft) O-SO 120 11,7 C 14,0 C 0,0 km/h (0 Bft)
23.05.2022 03:50 13,9 C 86 % 1008,5 hPa 0,0 l/m 0,0 km/h (0 Bft) O-SO 120 11,6 C 13,9 C 0,0 km/h (0 Bft)
23.05.2022 03:45 13,9 C 86 % 1008,6 hPa 0,0 l/m 0,1 km/h (0 Bft) O-SO 120 11,6 C 13,9 C 1,6 km/h (1 Bft)
23.05.2022 03:40 13,9 C 86 % 1008,8 hPa 0,0 l/m 0,0 km/h (0 Bft) O-SO 120 11,6 C 13,9 C 1,6 km/h (1 Bft)
23.05.2022 03:35 13,9 C 86 % 1008,8 hPa 0,0 l/m 0,1 km/h (0 Bft) O-SO 120 11,6 C 13,9 C 1,6 km/h (1 Bft)
23.05.2022 03:30 13,9 C 86 % 1008,8 hPa 0,0 l/m 0,0 km/h (0 Bft) O-SO 120 11,6 C 13,9 C 0,0 km/h (0 Bft)
23.05.2022 03:25 13,9 C 86 % 1009,0 hPa 0,0 l/m 0,0 km/h (0 Bft) O-SO 120 11,6 C 13,9 C 0,0 km/h (0 Bft)
23.05.2022 03:20 13,9 C 86 % 1008,9 hPa 0,0 l/m 0,0 km/h (0 Bft) O-SO 120 11,6 C 13,9 C 0,0 km/h (0 Bft)
23.05.2022 03:15 14,0 C 85 % 1008,9 hPa 0,0 l/m 0,0 km/h (0 Bft) O-SO 120 11,5 C 14,0 C 0,0 km/h (0 Bft)
23.05.2022 03:10 14,1 C 85 % 1008,9 hPa 0,0 l/m 0,4 km/h (0 Bft) O-SO 120 11,6 C 14,1 C 3,2 km/h (1 Bft)
23.05.2022 03:05 14,2 C 84 % 1009,0 hPa 0,0 l/m 0,0 km/h (0 Bft) O-SO 118 11,5 C 14,2 C 0,0 km/h (0 Bft)
23.05.2022 03:00 14,3 C 84 % 1008,8 hPa 0,0 l/m 0,0 km/h (0 Bft) O-SO 118 11,6 C 14,3 C 0,0 km/h (0 Bft)
23.05.2022 02:55 14,3 C 83 % 1008,8 hPa 0,0 l/m 0,0 km/h (0 Bft) O-SO 118 11,5 C 14,3 C 0,0 km/h (0 Bft)
23.05.2022 02:50 14,4 C 83 % 1008,8 hPa 0,0 l/m 0,0 km/h (0 Bft) O-SO 118 11,5 C 14,4 C 0,0 km/h (0 Bft)
23.05.2022 02:45 14,6 C 82 % 1008,8 hPa 0,0 l/m 0,0 km/h (0 Bft) O-SO 118 11,6 C 14,6 C 0,0 km/h (0 Bft)
23.05.2022 02:40 14,7 C 81 % 1008,8 hPa 0,0 l/m 0,0 km/h (0 Bft) O-SO 118 11,5 C 14,7 C 0,0 km/h (0 Bft)
23.05.2022 02:35 14,9 C 80 % 1008,9 hPa 0,0 l/m 0,0 km/h (0 Bft) O-SO 118 11,5 C 14,9 C 0,0 km/h (0 Bft)
23.05.2022 02:30 15,2 C 79 % 1008,9 hPa 0,0 l/m 0,0 km/h (0 Bft) O-SO 118 11,6 C 15,2 C 0,0 km/h (0 Bft)
23.05.2022 02:25 15,3 C 79 % 1008,9 hPa 0,0 l/m 0,0 km/h (0 Bft) O-SO 118 11,7 C 15,3 C 0,0 km/h (0 Bft)
23.05.2022 02:20 15,4 C 79 % 1008,8 hPa 0,0 l/m 0,9 km/h (0 Bft) O-SO 117 11,8 C 15,4 C 4,8 km/h (1 Bft)
23.05.2022 02:15 15,6 C 79 % 1009,0 hPa 0,0 l/m 0,8 km/h (0 Bft) O-SO 117 12,0 C 15,6 C 3,2 km/h (1 Bft)
23.05.2022 02:10 15,7 C 78 % 1009,0 hPa 0,0 l/m 0,0 km/h (0 Bft) O-SO 118 11,9 C 15,7 C 0,0 km/h (0 Bft)
23.05.2022 02:05 15,8 C 78 % 1009,1 hPa 0,0 l/m 0,0 km/h (0 Bft) O-SO 120 12,0 C 15,8 C 0,0 km/h (0 Bft)
23.05.2022 02:00 15,9 C 77 % 1009,2 hPa 0,0 l/m 0,0 km/h (0 Bft) O-SO 122 11,9 C 15,9 C 0,0 km/h (0 Bft)
23.05.2022 01:55 16,1 C 77 % 1009,1 hPa 0,0 l/m 0,0 km/h (0 Bft) O-SO 123 12,1 C 16,1 C 0,0 km/h (0 Bft)
23.05.2022 01:50 16,2 C 76 % 1009,3 hPa 0,0 l/m 0,0 km/h (0 Bft) O-SO 122 12,0 C 16,2 C 0,0 km/h (0 Bft)
23.05.2022 01:45 16,3 C 76 % 1009,5 hPa 0,0 l/m 0,3 km/h (0 Bft) O-SO 122 12,1 C 16,3 C 1,6 km/h (1 Bft)
23.05.2022 01:40 16,4 C 75 % 1009,5 hPa 0,0 l/m 0,9 km/h (0 Bft) O-SO 122 12,0 C 16,4 C 4,8 km/h (1 Bft)
23.05.2022 01:35 16,5 C 74 % 1009,6 hPa 0,0 l/m 0,1 km/h (0 Bft) O-SO 122 11,8 C 16,5 C 1,6 km/h (1 Bft)
23.05.2022 01:30 16,6 C 74 % 1009,5 hPa 0,0 l/m 0,0 km/h (0 Bft) O-SO 122 11,9 C 16,6 C 1,6 km/h (1 Bft)
23.05.2022 01:25 16,7 C 74 % 1009,5 hPa 0,0 l/m 0,2 km/h (0 Bft) O-SO 122 12,0 C 16,7 C 3,2 km/h (1 Bft)
23.05.2022 01:20 16,7 C 74 % 1009,5 hPa 0,0 l/m 1,4 km/h (1 Bft) O-SO 123 12,0 C 16,7 C 3,2 km/h (1 Bft)
23.05.2022 01:15 16,7 C 74 % 1009,7 hPa 0,0 l/m 0,9 km/h (0 Bft) O-SO 116 12,0 C 16,7 C 4,8 km/h (1 Bft)
23.05.2022 01:10 16,7 C 75 % 1009,8 hPa 0,0 l/m 2,2 km/h (1 Bft) O-SO 122 12,2 C 16,7 C 4,8 km/h (1 Bft)
23.05.2022 01:05 16,6 C 75 % 1010,0 hPa 0,0 l/m 0,3 km/h (0 Bft) O-SO 122 12,1 C 16,6 C 3,2 km/h (1 Bft)
23.05.2022 01:00 16,4 C 75 % 1010,1 hPa 0,0 l/m 0,0 km/h (0 Bft) O-SO 122 12,0 C 16,4 C 0,0 km/h (0 Bft)
23.05.2022 00:55 16,3 C 75 % 1010,1 hPa 0,0 l/m 0,0 km/h (0 Bft) O-SO 122 11,9 C 16,3 C 0,0 km/h (0 Bft)
23.05.2022 00:50 16,2 C 76 % 1010,0 hPa 0,0 l/m 0,2 km/h (0 Bft) O-SO 122 12,0 C 16,2 C 3,2 km/h (1 Bft)
23.05.2022 00:45 16,1 C 78 % 1010,1 hPa 0,0 l/m 0,0 km/h (0 Bft) O-SO 123 12,3 C 16,1 C 0,0 km/h (0 Bft)
23.05.2022 00:40 16,2 C 78 % 1010,3 hPa 0,0 l/m 0,0 km/h (0 Bft) O-SO 123 12,4 C 16,2 C 0,0 km/h (0 Bft)
23.05.2022 00:35 16,3 C 77 % 1010,6 hPa 0,0 l/m 0,0 km/h (0 Bft) O-SO 123 12,3 C 16,3 C 0,0 km/h (0 Bft)
23.05.2022 00:30 16,2 C 76 % 1010,7 hPa 0,0 l/m 0,0 km/h (0 Bft) O-SO 123 12,0 C 16,2 C 0,0 km/h (0 Bft)
23.05.2022 00:25 16,2 C 76 % 1010,8 hPa 0,0 l/m 0,0 km/h (0 Bft) O-SO 123 12,0 C 16,2 C 0,0 km/h (0 Bft)
23.05.2022 00:20 16,2 C 76 % 1010,7 hPa 0,0 l/m 0,0 km/h (0 Bft) O-SO 123 12,0 C 16,2 C 0,0 km/h (0 Bft)
23.05.2022 00:15 16,2 C 76 % 1010,7 hPa 0,0 l/m 0,0 km/h (0 Bft) O-SO 123 12,0 C 16,2 C 0,0 km/h (0 Bft)
23.05.2022 00:10 16,2 C 77 % 1010,8 hPa 0,0 l/m 0,0 km/h (0 Bft) O-SO 123 12,2 C 16,2 C 0,0 km/h (0 Bft)
23.05.2022 00:05 16,4 C 76 % 1010,7 hPa 0,0 l/m 0,0 km/h (0 Bft) O-SO 123 12,2 C 16,4 C 0,0 km/h (0 Bft)
23.05.2022 00:00 16,6 C 75 % 1010,9 hPa 0,0 l/m 0,0 km/h (0 Bft) O-SO 123 12,1 C 16,6 C 0,0 km/h (0 Bft)
22.05.2022 23:55 16,7 C 73 % 1010,9 hPa 0,0 l/m 0,0 km/h (0 Bft) O-SO 123 11,8 C 16,7 C 0,0 km/h (0 Bft)
22.05.2022 23:50 16,7 C 72 % 1010,9 hPa 0,0 l/m 0,0 km/h (0 Bft) O-SO 123 11,6 C 16,7 C 0,0 km/h (0 Bft)
22.05.2022 23:45 16,7 C 72 % 1010,8 hPa 0,0 l/m 0,0 km/h (0 Bft) O-SO 123 11,6 C 16,7 C 0,0 km/h (0 Bft)
22.05.2022 23:40 16,8 C 72 % 1010,9 hPa 0,0 l/m 0,0 km/h (0 Bft) O-SO 123 11,7 C 16,8 C 0,0 km/h (0 Bft)
22.05.2022 23:35 16,8 C 72 % 1010,8 hPa 0,0 l/m 0,0 km/h (0 Bft) O-SO 123 11,7 C 16,8 C 0,0 km/h (0 Bft)
22.05.2022 23:30 16,9 C 72 % 1010,9 hPa 0,0 l/m 0,0 km/h (0 Bft) O-SO 123 11,8 C 16,9 C 0,0 km/h (0 Bft)
22.05.2022 23:25 16,9 C 71 % 1010,9 hPa 0,0 l/m 0,0 km/h (0 Bft) O-SO 123 11,6 C 16,9 C 0,0 km/h (0 Bft)
22.05.2022 23:20 17,0 C 70 % 1010,7 hPa 0,0 l/m 0,0 km/h (0 Bft) O-SO 123 11,5 C 17,0 C 0,0 km/h (0 Bft)
22.05.2022 23:15 17,0 C 70 % 1010,7 hPa 0,0 l/m 0,0 km/h (0 Bft) O-SO 123 11,5 C 17,0 C 0,0 km/h (0 Bft)
22.05.2022 23:10 17,1 C 70 % 1010,9 hPa 0,0 l/m 0,0 km/h (0 Bft) O-SO 123 11,6 C 17,1 C 0,0 km/h (0 Bft)
22.05.2022 23:05 17,1 C 70 % 1010,8 hPa 0,0 l/m 0,0 km/h (0 Bft) O-SO 123 11,6 C 17,1 C 0,0 km/h (0 Bft)
22.05.2022 23:00 17,1 C 70 % 1010,9 hPa 0,0 l/m 0,0 km/h (0 Bft) O-SO 123 11,6 C 17,1 C 0,0 km/h (0 Bft)
22.05.2022 22:55 17,2 C 70 % 1011,0 hPa 0,0 l/m 0,0 km/h (0 Bft) O-SO 123 11,7 C 17,2 C 0,0 km/h (0 Bft)
22.05.2022 22:50 17,3 C 69 % 1011,0 hPa 0,0 l/m 0,0 km/h (0 Bft) O-SO 122 11,6 C 17,3 C 0,0 km/h (0 Bft)
22.05.2022 22:45 17,3 C 69 % 1010,9 hPa 0,0 l/m 0,0 km/h (0 Bft) O-SO 122 11,6 C 17,3 C 0,0 km/h (0 Bft)
22.05.2022 22:40 17,4 C 68 % 1010,9 hPa 0,0 l/m 0,0 km/h (0 Bft) O-SO 122 11,4 C 17,4 C 0,0 km/h (0 Bft)
22.05.2022 22:35 17,6 C 68 % 1011,1 hPa 0,0 l/m 0,0 km/h (0 Bft) O-SO 122 11,6 C 17,6 C 0,0 km/h (0 Bft)
22.05.2022 22:30 17,7 C 67 % 1011,1 hPa 0,0 l/m 0,0 km/h (0 Bft) O-SO 117 11,5 C 17,7 C 0,0 km/h (0 Bft)
22.05.2022 22:25 17,9 C 66 % 1011,1 hPa 0,0 l/m 0,0 km/h (0 Bft) O-SO 118 11,5 C 17,9 C 0,0 km/h (0 Bft)
22.05.2022 22:20 18,1 C 66 % 1011,1 hPa 0,0 l/m 0,0 km/h (0 Bft) O-SO 118 11,6 C 18,1 C 0,0 km/h (0 Bft)
22.05.2022 22:15 18,2 C 65 % 1011,2 hPa 0,0 l/m 0,0 km/h (0 Bft) O-SO 118 11,5 C 18,2 C 0,0 km/h (0 Bft)
22.05.2022 22:10 18,4 C 63 % 1011,2 hPa 0,0 l/m 0,0 km/h (0 Bft) O-SO 118 11,2 C 18,4 C 0,0 km/h (0 Bft)
22.05.2022 22:05 18,5 C 63 % 1011,2 hPa 0,0 l/m 0,0 km/h (0 Bft) O-SO 118 11,3 C 18,5 C 0,0 km/h (0 Bft)
22.05.2022 22:00 18,7 C 63 % 1011,2 hPa 0,0 l/m 0,0 km/h (0 Bft) O-SO 117 11,5 C 18,7 C 0,0 km/h (0 Bft)
22.05.2022 21:55 18,8 C 63 % 1011,3 hPa 0,0 l/m 0,0 km/h (0 Bft) O-SO 117 11,6 C 18,8 C 0,0 km/h (0 Bft)
22.05.2022 21:50 19,1 C 62 % 1011,3 hPa 0,0 l/m 0,0 km/h (0 Bft) O-SO 117 11,6 C 19,1 C 0,0 km/h (0 Bft)
22.05.2022 21:45 19,3 C 61 % 1011,3 hPa 0,0 l/m 0,0 km/h (0 Bft) O-SO 117 11,6 C 19,3 C 0,0 km/h (0 Bft)
22.05.2022 21:40 19,6 C 61 % 1011,4 hPa 0,0 l/m 0,0 km/h (0 Bft) O-SO 117 11,9 C 19,6 C 0,0 km/h (0 Bft)
22.05.2022 21:35 19,9 C 60 % 1011,4 hPa 0,0 l/m 0,0 km/h (0 Bft) O-SO 117 11,9 C 19,9 C 0,0 km/h (0 Bft)
22.05.2022 21:30 20,3 C 59 % 1011,4 hPa 0,0 l/m 0,0 km/h (0 Bft) O-SO 115 12,0 C 20,3 C 0,0 km/h (0 Bft)
22.05.2022 21:25 20,6 C 58 % 1011,4 hPa 0,0 l/m 0,0 km/h (0 Bft) O-SO 115 12,0 C 20,6 C 0,0 km/h (0 Bft)
22.05.2022 21:20 20,8 C 55 % 1011,5 hPa 0,0 l/m 0,0 km/h (0 Bft) O-SO 115 11,4 C 20,8 C 1,6 km/h (1 Bft)
22.05.2022 21:15 21,2 C 54 % 1011,4 hPa 0,0 l/m 0,0 km/h (0 Bft) O-SO 115 11,5 C 21,2 C 0,0 km/h (0 Bft)
22.05.2022 21:10 21,4 C 52 % 1011,5 hPa 0,0 l/m 0,0 km/h (0 Bft) O-SO 114 11,1 C 21,4 C 0,0 km/h (0 Bft)
22.05.2022 21:05 21,6 C 51 % 1011,5 hPa 0,0 l/m 0,9 km/h (0 Bft) O-SO 114 11,0 C 21,6 C 3,2 km/h (1 Bft)
22.05.2022 21:00 21,8 C 49 % 1011,6 hPa 0,0 l/m 0,4 km/h (0 Bft) O-SO 114 10,6 C 21,8 C 3,2 km/h (1 Bft)
22.05.2022 20:55 21,9 C 48 % 1011,6 hPa 0,0 l/m 0,6 km/h (0 Bft) O-SO 114 10,4 C 21,9 C 4,8 km/h (1 Bft)
22.05.2022 20:50 22,1 C 47 % 1011,6 hPa 0,0 l/m 0,7 km/h (0 Bft) O-SO 118 10,3 C 22,1 C 4,8 km/h (1 Bft)
22.05.2022 20:45 22,2 C 47 % 1011,7 hPa 0,0 l/m 0,7 km/h (0 Bft) O-SO 114 10,3 C 22,2 C 3,2 km/h (1 Bft)
22.05.2022 20:40 22,3 C 47 % 1011,7 hPa 0,0 l/m 1,2 km/h (1 Bft) O-SO 110 10,4 C 22,3 C 4,8 km/h (1 Bft)
22.05.2022 20:35 22,4 C 47 % 1011,7 hPa 0,0 l/m 2,4 km/h (1 Bft) O-SO 110 10,5 C 22,4 C 11,3 km/h (2 Bft)
22.05.2022 20:30 22,5 C 47 % 1011,6 hPa 0,0 l/m 2,5 km/h (1 Bft) O-SO 110 10,6 C 22,5 C 4,8 km/h (1 Bft)
22.05.2022 20:25 22,6 C 47 % 1011,6 hPa 0,0 l/m 3,1 km/h (1 Bft) O-SO 104 10,7 C 22,6 C 9,7 km/h (2 Bft)
22.05.2022 20:20 22,8 C 47 % 1011,6 hPa 0,0 l/m 5,0 km/h (1 Bft) O-SO 104 10,9 C 22,8 C 11,3 km/h (2 Bft)
22.05.2022 20:15 23,0 C 47 % 1011,6 hPa 0,0 l/m 3,8 km/h (1 Bft) O-SO 107 11,1 C 23,0 C 11,3 km/h (2 Bft)
22.05.2022 20:10 23,1 C 50 % 1011,7 hPa 0,0 l/m 2,9 km/h (1 Bft) O-SO 105 12,1 C 23,1 C 6,4 km/h (2 Bft)
22.05.2022 20:05 23,1 C 52 % 1011,6 hPa 0,0 l/m 0,7 km/h (0 Bft) SO 127 12,7 C 23,1 C 3,2 km/h (1 Bft)
22.05.2022 20:00 22,9 C 51 % 1011,8 hPa 0,0 l/m 2,6 km/h (1 Bft) SO 129 12,2 C 22,9 C 6,4 km/h (2 Bft)
22.05.2022 19:55 22,9 C 50 % 1011,9 hPa 0,0 l/m 3,7 km/h (1 Bft) O-SO 113 11,9 C 22,9 C 9,7 km/h (2 Bft)
22.05.2022 19:50 22,8 C 50 % 1011,9 hPa 0,0 l/m 2,3 km/h (1 Bft) O-SO 111 11,8 C 22,8 C 6,4 km/h (2 Bft)
22.05.2022 19:45 22,9 C 50 % 1012,1 hPa 0,0 l/m 3,8 km/h (1 Bft) O-SO 108 11,9 C 22,9 C 11,3 km/h (2 Bft)
22.05.2022 19:40 23,3 C 48 % 1012,1 hPa 0,0 l/m 3,7 km/h (1 Bft) O-SO 102 11,7 C 23,3 C 11,3 km/h (2 Bft)
22.05.2022 19:35 23,6 C 48 % 1012,1 hPa 0,0 l/m 4,5 km/h (1 Bft) O-SO 114 11,9 C 23,6 C 11,3 km/h (2 Bft)
22.05.2022 19:30 23,7 C 46 % 1012,1 hPa 0,0 l/m 2,5 km/h (1 Bft) O 95 11,4 C 23,7 C 6,4 km/h (2 Bft)
22.05.2022 19:25 23,8 C 46 % 1012,2 hPa 0,0 l/m 2,7 km/h (1 Bft) O-SO 105 11,5 C 23,8 C 6,4 km/h (2 Bft)
22.05.2022 19:20 23,8 C 46 % 1012,1 hPa 0,0 l/m 1,7 km/h (1 Bft) O 100 11,5 C 23,8 C 9,7 km/h (2 Bft)
22.05.2022 19:15 24,0 C 44 % 1012,1 hPa 0,0 l/m 2,0 km/h (1 Bft) O-SO 113 11,0 C 24,0 C 11,3 km/h (2 Bft)
22.05.2022 19:10 24,0 C 45 % 1012,2 hPa 0,0 l/m 1,8 km/h (1 Bft) SO 137 11,3 C 24,0 C 6,4 km/h (2 Bft)
22.05.2022 19:05 24,0 C 45 % 1012,1 hPa 0,0 l/m 1,7 km/h (1 Bft) SO 134 11,3 C 24,0 C 4,8 km/h (1 Bft)
22.05.2022 19:00 23,9 C 46 % 1012,1 hPa 0,0 l/m 2,8 km/h (1 Bft) O 95 11,6 C 23,9 C 8,0 km/h (2 Bft)
22.05.2022 18:55 24,2 C 46 % 1012,1 hPa 0,0 l/m 3,7 km/h (1 Bft) O-SO 106 11,8 C 24,2 C 11,3 km/h (2 Bft)
22.05.2022 18:50 24,4 C 46 % 1012,1 hPa 0,0 l/m 1,8 km/h (1 Bft) O-SO 103 12,0 C 24,4 C 6,4 km/h (2 Bft)
22.05.2022 18:45 24,5 C 46 % 1012,2 hPa 0,0 l/m 2,9 km/h (1 Bft) NO 47 12,1 C 24,5 C 8,0 km/h (2 Bft)
22.05.2022 18:40 24,7 C 46 % 1012,2 hPa 0,0 l/m 2,1 km/h (1 Bft) O 83 12,3 C 24,7 C 6,4 km/h (2 Bft)
22.05.2022 18:35 24,7 C 45 % 1012,2 hPa 0,0 l/m 1,8 km/h (1 Bft) O-SO 109 12,0 C 24,7 C 4,8 km/h (1 Bft)
22.05.2022 18:30 24,6 C 46 % 1012,5 hPa 0,0 l/m 1,8 km/h (1 Bft) S-SO 157 12,2 C 24,6 C 6,4 km/h (2 Bft)
22.05.2022 18:25 24,4 C 46 % 1012,4 hPa 0,0 l/m 2,3 km/h (1 Bft) O-SO 102 12,0 C 24,4 C 8,0 km/h (2 Bft)
22.05.2022 18:20 24,3 C 46 % 1012,6 hPa 0,0 l/m 3,2 km/h (1 Bft) O-NO 74 11,9 C 24,3 C 12,9 km/h (3 Bft)
22.05.2022 18:15 24,4 C 45 % 1012,6 hPa 0,0 l/m 3,2 km/h (1 Bft) O 100 11,7 C 24,4 C 9,7 km/h (2 Bft)
22.05.2022 18:10 24,4 C 44 % 1012,8 hPa 0,0 l/m 4,2 km/h (1 Bft) O 94 11,3 C 24,4 C 12,9 km/h (3 Bft)
22.05.2022 18:05 24,6 C 44 % 1012,8 hPa 0,0 l/m 1,3 km/h (1 Bft) SO 131 11,5 C 24,6 C 4,8 km/h (1 Bft)
22.05.2022 18:00 24,6 C 43 % 1012,7 hPa 0,0 l/m 2,8 km/h (1 Bft) O 80 11,2 C 24,6 C 9,7 km/h (2 Bft)
22.05.2022 17:55 24,6 C 45 % 1012,8 hPa 0,0 l/m 3,1 km/h (1 Bft) O-SO 119 11,9 C 24,6 C 11,3 km/h (2 Bft)
22.05.2022 17:50 24,7 C 44 % 1012,9 hPa 0,0 l/m 3,6 km/h (1 Bft) O-SO 109 11,6 C 24,7 C 11,3 km/h (2 Bft)
22.05.2022 17:45 24,7 C 43 % 1013,0 hPa 0,0 l/m 3,0 km/h (1 Bft) O 97 11,3 C 24,7 C 6,4 km/h (2 Bft)
22.05.2022 17:40 24,9 C 41 % 1013,1 hPa 0,0 l/m 2,6 km/h (1 Bft) NO 52 10,7 C 24,9 C 8,0 km/h (2 Bft)
22.05.2022 17:35 25,0 C 42 % 1013,2 hPa 0,0 l/m 2,1 km/h (1 Bft) O-SO 114 11,2 C 25,0 C 8,0 km/h (2 Bft)
22.05.2022 17:30 24,9 C 42 % 1013,4 hPa 0,0 l/m 0,0 km/h (0 Bft) SO 142 11,1 C 24,9 C 1,6 km/h (1 Bft)
22.05.2022 17:25 24,9 C 43 % 1013,6 hPa 0,0 l/m 2,1 km/h (1 Bft) SW 217 11,4 C 24,9 C 11,3 km/h (2 Bft)
22.05.2022 17:20 24,9 C 42 % 1013,5 hPa 0,0 l/m 1,7 km/h (1 Bft) O 85 11,1 C 24,9 C 6,4 km/h (2 Bft)
22.05.2022 17:15 24,7 C 43 % 1013,7 hPa 0,0 l/m 2,5 km/h (1 Bft) O-NO 76 11,3 C 24,7 C 6,4 km/h (2 Bft)
22.05.2022 17:10 24,7 C 42 % 1013,8 hPa 0,0 l/m 1,7 km/h (1 Bft) O 90 10,9 C 24,7 C 6,4 km/h (2 Bft)
22.05.2022 17:05 24,5 C 42 % 1013,6 hPa 0,0 l/m 3,2 km/h (1 Bft) SO 125 10,7 C 24,5 C 9,7 km/h (2 Bft)
22.05.2022 17:00 24,4 C 44 % 1013,7 hPa 0,0 l/m 4,9 km/h (1 Bft) NO 56 11,3 C 24,4 C 8,0 km/h (2 Bft)
22.05.2022 16:55 24,6 C 43 % 1013,8 hPa 0,0 l/m 4,1 km/h (1 Bft) N-NO 29 11,2 C 24,6 C 11,3 km/h (2 Bft)
22.05.2022 16:50 24,4 C 44 % 1013,9 hPa 0,0 l/m 2,4 km/h (1 Bft) O-NO 78 11,3 C 24,4 C 6,4 km/h (2 Bft)
22.05.2022 16:45 24,3 C 43 % 1014,0 hPa 0,0 l/m 2,8 km/h (1 Bft) O 84 10,9 C 24,3 C 6,4 km/h (2 Bft)
22.05.2022 16:40 24,3 C 43 % 1014,0 hPa 0,0 l/m 3,1 km/h (1 Bft) O-NO 63 10,9 C 24,3 C 8,0 km/h (2 Bft)
22.05.2022 16:35 24,2 C 45 % 1013,9 hPa 0,0 l/m 1,9 km/h (1 Bft) O-SO 108 11,5 C 24,2 C 4,8 km/h (1 Bft)
22.05.2022 16:30 24,2 C 42 % 1014,0 hPa 0,0 l/m 1,3 km/h (1 Bft) SO 134 10,5 C 24,2 C 6,4 km/h (2 Bft)
22.05.2022 16:25 24,3 C 43 % 1014,1 hPa 0,0 l/m 2,2 km/h (1 Bft) O 82 10,9 C 24,3 C 4,8 km/h (1 Bft)
22.05.2022 16:20 24,4 C 43 % 1014,1 hPa 0,0 l/m 2,4 km/h (1 Bft) O-NO 57 11,0 C 24,4 C 8,0 km/h (2 Bft)
22.05.2022 16:15 24,4 C 45 % 1014,2 hPa 0,0 l/m 1,6 km/h (1 Bft) O-NO 78 11,7 C 24,4 C 4,8 km/h (1 Bft)
22.05.2022 16:10 24,2 C 44 % 1014,2 hPa 0,0 l/m 3,1 km/h (1 Bft) O-SO 120 11,2 C 24,2 C 9,7 km/h (2 Bft)
22.05.2022 16:05 23,7 C 46 % 1014,2 hPa 0,0 l/m 1,9 km/h (1 Bft) O-SO 121 11,4 C 23,7 C 6,4 km/h (2 Bft)
22.05.2022 16:00 23,4 C 48 % 1014,2 hPa 0,0 l/m 3,2 km/h (1 Bft) N-NO 28 11,8 C 23,4 C 8,0 km/h (2 Bft)
22.05.2022 15:55 23,5 C 49 % 1014,3 hPa 0,0 l/m 4,4 km/h (1 Bft) NO 54 12,2 C 23,5 C 9,7 km/h (2 Bft)
22.05.2022 15:50 23,4 C 48 % 1014,3 hPa 0,0 l/m 5,3 km/h (1 Bft) O-NO 69 11,8 C 23,4 C 12,9 km/h (3 Bft)
22.05.2022 15:45 23,3 C 48 % 1014,4 hPa 0,0 l/m 4,8 km/h (1 Bft) O-NO 66 11,7 C 23,3 C 9,7 km/h (2 Bft)
22.05.2022 15:40 23,3 C 49 % 1014,4 hPa 0,0 l/m 5,5 km/h (2 Bft) O-NO 66 12,0 C 23,3 C 14,5 km/h (3 Bft)
22.05.2022 15:35 23,2 C 50 % 1014,4 hPa 0,0 l/m 5,0 km/h (1 Bft) NO 54 12,2 C 23,2 C 14,5 km/h (3 Bft)
22.05.2022 15:30 22,9 C 51 % 1014,5 hPa 0,0 l/m 3,0 km/h (1 Bft) O 85 12,2 C 22,9 C 8,0 km/h (2 Bft)
22.05.2022 15:25 22,9 C 53 % 1014,7 hPa 0,0 l/m 4,0 km/h (1 Bft) N 5 12,8 C 22,9 C 8,0 km/h (2 Bft)
22.05.2022 15:20 22,8 C 52 % 1014,8 hPa 0,0 l/m 3,9 km/h (1 Bft) N-NW 348 12,4 C 22,8 C 9,7 km/h (2 Bft)
22.05.2022 15:15 22,9 C 51 % 1014,9 hPa 0,0 l/m 4,2 km/h (1 Bft) N 5 12,2 C 22,9 C 9,7 km/h (2 Bft)
22.05.2022 15:10 22,8 C 53 % 1015,1 hPa 0,0 l/m 5,1 km/h (1 Bft) O 84 12,7 C 22,8 C 11,3 km/h (2 Bft)
22.05.2022 15:05 22,7 C 52 % 1014,9 hPa 0,0 l/m 4,4 km/h (1 Bft) N-NO 26 12,3 C 22,7 C 12,9 km/h (3 Bft)
22.05.2022 15:00 22,7 C 51 % 1015,0 hPa 0,0 l/m 4,2 km/h (1 Bft) N 11 12,0 C 22,7 C 8,0 km/h (2 Bft)
22.05.2022 14:55 22,7 C 50 % 1015,2 hPa 0,0 l/m 2,9 km/h (1 Bft) N-NO 26 11,7 C 22,7 C 6,4 km/h (2 Bft)
22.05.2022 14:50 22,7 C 53 % 1015,3 hPa 0,0 l/m 2,9 km/h (1 Bft) NO 36 12,6 C 22,7 C 8,0 km/h (2 Bft)
22.05.2022 14:45 22,7 C 52 % 1015,3 hPa 0,0 l/m 3,1 km/h (1 Bft) N-NW 332 12,3 C 22,7 C 6,4 km/h (2 Bft)
22.05.2022 14:40 22,5 C 52 % 1015,3 hPa 0,0 l/m 2,9 km/h (1 Bft) N-NW 347 12,1 C 22,5 C 6,4 km/h (2 Bft)
22.05.2022 14:35 22,3 C 52 % 1015,3 hPa 0,0 l/m 3,2 km/h (1 Bft) N 9 12,0 C 22,3 C 8,0 km/h (2 Bft)
22.05.2022 14:30 22,4 C 52 % 1015,4 hPa 0,0 l/m 3,4 km/h (1 Bft) N-NO 33 12,1 C 22,4 C 8,0 km/h (2 Bft)
22.05.2022 14:25 22,5 C 51 % 1015,4 hPa 0,0 l/m 2,4 km/h (1 Bft) NW 319 11,8 C 22,5 C 6,4 km/h (2 Bft)
22.05.2022 14:20 22,5 C 52 % 1015,5 hPa 0,0 l/m 4,2 km/h (1 Bft) NO 48 12,1 C 22,5 C 8,0 km/h (2 Bft)
22.05.2022 14:15 22,5 C 52 % 1015,6 hPa 0,0 l/m 3,2 km/h (1 Bft) NO 38 12,1 C 22,5 C 8,0 km/h (2 Bft)
22.05.2022 14:10 22,7 C 53 % 1015,6 hPa 0,0 l/m 4,3 km/h (1 Bft) O-NO 59 12,6 C 22,7 C 8,0 km/h (2 Bft)
22.05.2022 14:05 22,7 C 54 % 1015,7 hPa 0,0 l/m 0,6 km/h (0 Bft) N-NO 26 12,9 C 22,7 C 4,8 km/h (1 Bft)
22.05.2022 14:00 22,3 C 53 % 1016,0 hPa 0,0 l/m 2,1 km/h (1 Bft) O 82 12,2 C 22,3 C 6,4 km/h (2 Bft)
22.05.2022 13:55 22,2 C 53 % 1016,1 hPa 0,0 l/m 2,7 km/h (1 Bft) O 86 12,2 C 22,2 C 8,0 km/h (2 Bft)
22.05.2022 13:50 22,0 C 53 % 1016,2 hPa 0,0 l/m 3,3 km/h (1 Bft) O 82 12,0 C 22,0 C 6,4 km/h (2 Bft)
22.05.2022 13:45 22,1 C 52 % 1016,2 hPa 0,0 l/m 3,2 km/h (1 Bft) O-NO 63 11,8 C 22,1 C 9,7 km/h (2 Bft)
22.05.2022 13:40 21,9 C 54 % 1016,2 hPa 0,0 l/m 3,4 km/h (1 Bft) NO 56 12,2 C 21,9 C 12,9 km/h (3 Bft)
22.05.2022 13:35 21,9 C 54 % 1016,1 hPa 0,0 l/m 3,1 km/h (1 Bft) NO 38 12,2 C 21,9 C 6,4 km/h (2 Bft)
22.05.2022 13:30 21,9 C 54 % 1016,2 hPa 0,0 l/m 1,8 km/h (1 Bft) N-NW 335 12,2 C 21,9 C 8,0 km/h (2 Bft)
22.05.2022 13:25 21,6 C 54 % 1016,2 hPa 0,0 l/m 1,8 km/h (1 Bft) N 360 11,9 C 21,6 C 6,4 km/h (2 Bft)
22.05.2022 13:20 21,4 C 54 % 1016,4 hPa 0,0 l/m 2,7 km/h (1 Bft) W 266 11,7 C 21,4 C 6,4 km/h (2 Bft)
22.05.2022 13:15 21,3 C 55 % 1016,5 hPa 0,0 l/m 2,6 km/h (1 Bft) N-NW 336 11,9 C 21,3 C 8,0 km/h (2 Bft)
22.05.2022 13:10 21,2 C 56 % 1016,6 hPa 0,0 l/m 2,4 km/h (1 Bft) NW 307 12,1 C 21,2 C 4,8 km/h (1 Bft)
22.05.2022 13:05 21,2 C 54 % 1016,7 hPa 0,0 l/m 2,5 km/h (1 Bft) N-NO 12 11,5 C 21,2 C 6,4 km/h (2 Bft)
22.05.2022 13:00 21,2 C 56 % 1016,8 hPa 0,0 l/m 1,7 km/h (1 Bft) N-NW 331 12,1 C 21,2 C 6,4 km/h (2 Bft)
22.05.2022 12:55 20,9 C 54 % 1016,9 hPa 0,0 l/m 3,0 km/h (1 Bft) W 262 11,2 C 20,9 C 8,0 km/h (2 Bft)
22.05.2022 12:50 21,1 C 55 % 1016,9 hPa 0,0 l/m 4,0 km/h (1 Bft) NW 325 11,7 C 21,1 C 11,3 km/h (2 Bft)
22.05.2022 12:45 21,1 C 53 % 1016,9 hPa 0,0 l/m 0,7 km/h (0 Bft) NO 47 11,1 C 21,1 C 3,2 km/h (1 Bft)
22.05.2022 12:40 20,9 C 54 % 1016,8 hPa 0,0 l/m 3,8 km/h (1 Bft) NO 41 11,2 C 20,9 C 11,3 km/h (2 Bft)
22.05.2022 12:35 21,1 C 53 % 1016,9 hPa 0,0 l/m 4,9 km/h (1 Bft) NO 36 11,1 C 21,1 C 9,7 km/h (2 Bft)
22.05.2022 12:30 20,7 C 55 % 1017,0 hPa 0,0 l/m 2,4 km/h (1 Bft) O-SO 103 11,3 C 20,7 C 6,4 km/h (2 Bft)
22.05.2022 12:25 20,8 C 54 % 1017,0 hPa 0,0 l/m 4,3 km/h (1 Bft) N 355 11,1 C 20,8 C 11,3 km/h (2 Bft)
22.05.2022 12:20 21,1 C 54 % 1017,1 hPa 0,0 l/m 2,8 km/h (1 Bft) W-NW 289 11,4 C 21,1 C 8,0 km/h (2 Bft)
22.05.2022 12:15 21,1 C 54 % 1017,2 hPa 0,0 l/m 1,8 km/h (1 Bft) O-NO 62 11,4 C 21,1 C 8,0 km/h (2 Bft)
22.05.2022 12:10 20,7 C 57 % 1017,3 hPa 0,0 l/m 3,2 km/h (1 Bft) W 279 11,9 C 20,7 C 6,4 km/h (2 Bft)
22.05.2022 12:05 20,6 C 55 % 1017,2 hPa 0,0 l/m 3,6 km/h (1 Bft) NW 313 11,2 C 20,6 C 6,4 km/h (2 Bft)
22.05.2022 12:00 20,6 C 56 % 1017,3 hPa 0,0 l/m 3,4 km/h (1 Bft) W-NW 289 11,5 C 20,6 C 9,7 km/h (2 Bft)
22.05.2022 11:55 20,4 C 55 % 1017,2 hPa 0,0 l/m 3,5 km/h (1 Bft) N-NW 348 11,1 C 20,4 C 8,0 km/h (2 Bft)
22.05.2022 11:50 20,3 C 56 % 1017,2 hPa 0,0 l/m 2,7 km/h (1 Bft) N-NO 31 11,2 C 20,3 C 6,4 km/h (2 Bft)
22.05.2022 11:45 20,1 C 56 % 1017,3 hPa 0,0 l/m 1,1 km/h (1 Bft) W 278 11,0 C 20,1 C 4,8 km/h (1 Bft)
22.05.2022 11:40 19,9 C 57 % 1017,3 hPa 0,0 l/m 2,5 km/h (1 Bft) N 9 11,1 C 19,9 C 6,4 km/h (2 Bft)
22.05.2022 11:35 19,7 C 56 % 1017,2 hPa 0,0 l/m 3,8 km/h (1 Bft) NO 49 10,7 C 19,7 C 8,0 km/h (2 Bft)
22.05.2022 11:30 19,6 C 59 % 1017,3 hPa 0,0 l/m 3,8 km/h (1 Bft) N-NW 331 11,4 C 19,6 C 8,0 km/h (2 Bft)
22.05.2022 11:25 19,6 C 58 % 1017,4 hPa 0,0 l/m 5,1 km/h (1 Bft) O-NO 57 11,1 C 19,6 C 11,3 km/h (2 Bft)
22.05.2022 11:20 19,5 C 62 % 1017,3 hPa 0,0 l/m 4,5 km/h (1 Bft) NW 320 12,0 C 19,5 C 8,0 km/h (2 Bft)
22.05.2022 11:15 19,3 C 59 % 1017,5 hPa 0,0 l/m 3,0 km/h (1 Bft) N-NO 21 11,1 C 19,3 C 8,0 km/h (2 Bft)
22.05.2022 11:10 19,2 C 61 % 1017,5 hPa 0,0 l/m 4,5 km/h (1 Bft) N-NO 31 11,5 C 19,2 C 12,9 km/h (3 Bft)
22.05.2022 11:05 19,0 C 63 % 1017,4 hPa 0,0 l/m 4,3 km/h (1 Bft) NW 309 11,8 C 19,0 C 12,9 km/h (3 Bft)
22.05.2022 11:00 19,0 C 62 % 1017,6 hPa 0,0 l/m 2,8 km/h (1 Bft) N-NO 12 11,6 C 19,0 C 11,3 km/h (2 Bft)
22.05.2022 10:55 18,9 C 63 % 1017,6 hPa 0,0 l/m 4,3 km/h (1 Bft) N 360 11,7 C 18,9 C 9,7 km/h (2 Bft)
22.05.2022 10:50 18,9 C 61 % 1017,6 hPa 0,0 l/m 3,6 km/h (1 Bft) N-NO 19 11,2 C 18,9 C 9,7 km/h (2 Bft)
22.05.2022 10:45 18,7 C 64 % 1017,5 hPa 0,0 l/m 4,4 km/h (1 Bft) N-NO 20 11,7 C 18,7 C 12,9 km/h (3 Bft)
22.05.2022 10:40 18,8 C 65 % 1017,6 hPa 0,0 l/m 3,7 km/h (1 Bft) N 9 12,1 C 18,8 C 11,3 km/h (2 Bft)
22.05.2022 10:35 18,7 C 64 % 1017,7 hPa 0,0 l/m 2,1 km/h (1 Bft) NW 317 11,7 C 18,7 C 6,4 km/h (2 Bft)
22.05.2022 10:30 18,7 C 65 % 1017,7 hPa 0,0 l/m 2,3 km/h (1 Bft) N 360 12,0 C 18,7 C 6,4 km/h (2 Bft)
22.05.2022 10:25 18,6 C 67 % 1017,7 hPa 0,0 l/m 2,5 km/h (1 Bft) NW 306 12,3 C 18,6 C 4,8 km/h (1 Bft)
22.05.2022 10:20 18,4 C 67 % 1017,7 hPa 0,0 l/m 1,0 km/h (0 Bft) N-NO 24 12,2 C 18,4 C 4,8 km/h (1 Bft)
22.05.2022 10:15 18,1 C 68 % 1017,6 hPa 0,0 l/m 0,8 km/h (0 Bft) N-NW 329 12,1 C 18,1 C 3,2 km/h (1 Bft)
22.05.2022 10:10 17,8 C 71 % 1017,7 hPa 0,0 l/m 2,6 km/h (1 Bft) NW 325 12,5 C 17,8 C 4,8 km/h (1 Bft)
22.05.2022 10:05 17,7 C 71 % 1017,8 hPa 0,0 l/m 2,9 km/h (1 Bft) NO 41 12,4 C 17,7 C 8,0 km/h (2 Bft)
22.05.2022 10:00 17,6 C 71 % 1017,9 hPa 0,0 l/m 2,9 km/h (1 Bft) N-NO 19 12,3 C 17,6 C 4,8 km/h (1 Bft)
22.05.2022 09:55 17,6 C 71 % 1018,0 hPa 0,0 l/m 1,9 km/h (1 Bft) N 355 12,3 C 17,6 C 6,4 km/h (2 Bft)
22.05.2022 09:50 17,6 C 70 % 1017,9 hPa 0,0 l/m 2,6 km/h (1 Bft) NO 40 12,1 C 17,6 C 6,4 km/h (2 Bft)
22.05.2022 09:45 17,6 C 71 % 1018,0 hPa 0,0 l/m 2,1 km/h (1 Bft) N-NO 32 12,3 C 17,6 C 6,4 km/h (2 Bft)
22.05.2022 09:40 17,3 C 74 % 1017,9 hPa 0,0 l/m 2,6 km/h (1 Bft) NO 42 12,6 C 17,3 C 6,4 km/h (2 Bft)
22.05.2022 09:35 17,2 C 75 % 1018,0 hPa 0,0 l/m 2,8 km/h (1 Bft) N 355 12,7 C 17,2 C 9,7 km/h (2 Bft)
22.05.2022 09:30 17,1 C 74 % 1018,1 hPa 0,0 l/m 2,5 km/h (1 Bft) NO 44 12,4 C 17,1 C 4,8 km/h (1 Bft)
22.05.2022 09:25 17,1 C 74 % 1018,0 hPa 0,0 l/m 3,5 km/h (1 Bft) NO 46 12,4 C 17,1 C 6,4 km/h (2 Bft)
22.05.2022 09:20 16,9 C 74 % 1018,3 hPa 0,0 l/m 2,8 km/h (1 Bft) NO 49 12,2 C 16,9 C 6,4 km/h (2 Bft)
22.05.2022 09:15 16,8 C 74 % 1018,3 hPa 0,0 l/m 1,7 km/h (1 Bft) N-NO 23 12,1 C 16,8 C 4,8 km/h (1 Bft)
22.05.2022 09:10 16,8 C 74 % 1018,2 hPa 0,0 l/m 0,7 km/h (0 Bft) N 355 12,1 C 16,8 C 3,2 km/h (1 Bft)
22.05.2022 09:05 16,7 C 76 % 1018,4 hPa 0,0 l/m 0,0 km/h (0 Bft) W-NW 300 12,4 C 16,7 C 0,0 km/h (0 Bft)
22.05.2022 09:00 16,4 C 77 % 1018,4 hPa 0,0 l/m 0,0 km/h (0 Bft) W-NW 297 12,4 C 16,4 C 0,0 km/h (0 Bft)
22.05.2022 08:55 16,1 C 79 % 1018,5 hPa 0,0 l/m 0,8 km/h (0 Bft) W-NW 297 12,5 C 16,1 C 3,2 km/h (1 Bft)
22.05.2022 08:50 15,8 C 78 % 1018,4 hPa 0,0 l/m 1,0 km/h (0 Bft) W-NW 297 12,0 C 15,8 C 3,2 km/h (1 Bft)
22.05.2022 08:45 15,3 C 81 % 1018,4 hPa 0,0 l/m 0,0 km/h (0 Bft) W 271 12,1 C 15,3 C 0,0 km/h (0 Bft)
22.05.2022 08:40 14,8 C 80 % 1018,4 hPa 0,0 l/m 0,0 km/h (0 Bft) W 269 11,4 C 14,8 C 0,0 km/h (0 Bft)
22.05.2022 08:35 14,2 C 83 % 1018,4 hPa 0,0 l/m 0,0 km/h (0 Bft) W 269 11,4 C 14,2 C 0,0 km/h (0 Bft)
22.05.2022 08:30 13,8 C 87 % 1018,5 hPa 0,0 l/m 0,0 km/h (0 Bft) W 269 11,7 C 13,8 C 0,0 km/h (0 Bft)
22.05.2022 08:25 13,4 C 88 % 1018,5 hPa 0,0 l/m 0,0 km/h (0 Bft) W 269 11,5 C 13,4 C 0,0 km/h (0 Bft)
22.05.2022 08:20 13,1 C 89 % 1018,5 hPa 0,0 l/m 0,0 km/h (0 Bft) W 269 11,3 C 13,1 C 0,0 km/h (0 Bft)
22.05.2022 08:15 12,8 C 90 % 1018,5 hPa 0,0 l/m 0,0 km/h (0 Bft) W 269 11,2 C 12,8 C 0,0 km/h (0 Bft)
22.05.2022 08:10 12,4 C 91 % 1018,4 hPa 0,0 l/m 0,0 km/h (0 Bft) W 269 11,0 C 12,4 C 0,0 km/h (0 Bft)
22.05.2022 08:05 12,1 C 91 % 1018,6 hPa 0,0 l/m 0,0 km/h (0 Bft) W 269 10,7 C 12,1 C 0,0 km/h (0 Bft)
22.05.2022 08:00 11,8 C 91 % 1018,5 hPa 0,0 l/m 0,0 km/h (0 Bft) W 269 10,4 C 11,8 C 0,0 km/h (0 Bft)
22.05.2022 07:55 11,5 C 92 % 1018,6 hPa 0,0 l/m 0,0 km/h (0 Bft) W 269 10,2 C 11,5 C 0,0 km/h (0 Bft)
22.05.2022 07:50 11,2 C 92 % 1018,6 hPa 0,0 l/m 0,0 km/h (0 Bft) W 269 9,9 C 11,2 C 0,0 km/h (0 Bft)
22.05.2022 07:45 11,1 C 92 % 1018,5 hPa 0,0 l/m 0,0 km/h (0 Bft) W 269 9,8 C 11,1 C 0,0 km/h (0 Bft)
22.05.2022 07:40 10,9 C 93 % 1018,5 hPa 0,0 l/m 0,2 km/h (0 Bft) W 269 9,8 C 10,9 C 1,6 km/h (1 Bft)
22.05.2022 07:35 10,6 C 92 % 1018,6 hPa 0,0 l/m 0,0 km/h (0 Bft) W 269 9,4 C 10,6 C 0,0 km/h (0 Bft)
22.05.2022 07:30 10,4 C 93 % 1018,5 hPa 0,0 l/m 0,0 km/h (0 Bft) W 269 9,3 C 10,4 C 0,0 km/h (0 Bft)
22.05.2022 07:25 10,2 C 93 % 1018,4 hPa 0,0 l/m 0,0 km/h (0 Bft) W 269 9,1 C 10,2 C 0,0 km/h (0 Bft)
22.05.2022 07:20 10,0 C 93 % 1018,5 hPa 0,0 l/m 0,0 km/h (0 Bft) W 269 8,9 C 10,0 C 0,0 km/h (0 Bft)
22.05.2022 07:15 9,8 C 93 % 1018,5 hPa 0,0 l/m 0,0 km/h (0 Bft) W 269 8,7 C 9,8 C 0,0 km/h (0 Bft)
22.05.2022 07:10 9,7 C 93 % 1018,5 hPa 0,0 l/m 0,0 km/h (0 Bft) W 269 8,6 C 9,7 C 0,0 km/h (0 Bft)
22.05.2022 07:05 9,5 C 94 % 1018,5 hPa 0,0 l/m 0,0 km/h (0 Bft) W 269 8,6 C 9,5 C 0,0 km/h (0 Bft)
22.05.2022 07:00 9,4 C 93 % 1018,7 hPa 0,0 l/m 0,0 km/h (0 Bft) W 267 8,3 C 9,4 C 0,0 km/h (0 Bft)
22.05.2022 06:55 9,3 C 94 % 1018,5 hPa 0,0 l/m 0,0 km/h (0 Bft) W 267 8,4 C 9,3 C 0,0 km/h (0 Bft)
22.05.2022 06:50 9,1 C 94 % 1018,4 hPa 0,0 l/m 0,0 km/h (0 Bft) W 267 8,2 C 9,1 C 0,0 km/h (0 Bft)
22.05.2022 06:45 9,0 C 93 % 1018,4 hPa 0,0 l/m 0,0 km/h (0 Bft) W 267 7,9 C 9,0 C 0,0 km/h (0 Bft)
22.05.2022 06:40 8,9 C 93 % 1018,4 hPa 0,0 l/m 0,0 km/h (0 Bft) W 267 7,8 C 8,9 C 0,0 km/h (0 Bft)
22.05.2022 06:35 8,9 C 93 % 1018,5 hPa 0,0 l/m 0,0 km/h (0 Bft) W 267 7,8 C 8,9 C 0,0 km/h (0 Bft)
22.05.2022 06:30 8,8 C 93 % 1018,6 hPa 0,0 l/m 0,0 km/h (0 Bft) W 267 7,7 C 8,8 C 0,0 km/h (0 Bft)
22.05.2022 06:25 8,8 C 93 % 1018,5 hPa 0,0 l/m 0,0 km/h (0 Bft) W 267 7,7 C 8,8 C 0,0 km/h (0 Bft)
22.05.2022 06:20 8,7 C 93 % 1018,5 hPa 0,0 l/m 0,0 km/h (0 Bft) W 267 7,6 C 8,7 C 0,0 km/h (0 Bft)
22.05.2022 06:15 8,7 C 93 % 1018,7 hPa 0,0 l/m 0,0 km/h (0 Bft) W 267 7,6 C 8,7 C 0,0 km/h (0 Bft)
22.05.2022 06:10 8,7 C 92 % 1018,6 hPa 0,0 l/m 0,0 km/h (0 Bft) W 267 7,5 C 8,7 C 0,0 km/h (0 Bft)
22.05.2022 06:05 8,8 C 92 % 1018,6 hPa 0,0 l/m 0,0 km/h (0 Bft) W 267 7,6 C 8,8 C 0,0 km/h (0 Bft)
22.05.2022 06:00 8,8 C 92 % 1018,5 hPa 0,0 l/m 0,0 km/h (0 Bft) W 267 7,6 C 8,8 C 0,0 km/h (0 Bft)
_ Min-Zeit 06:10 17:40 05:00 - 06:00 - - 06:10 06:10 06:00
Minimum _ 8,7 C 41 % 1007,8 hPa - 0,0 km/h (0 Bft) - - 7,5 C 8,7 C 0,0 km/h (0 Bft)
_ Max-Zeit 17:35 06:50 06:15 06:00 15:40 - - 14:05 17:35 15:35
Maximum _ 25,0 C 94 % 1018,7 hPa 0,0 l/m 5,5 km/h
O-NO (2 Bft)
- - 12,9 C 25,0 C 14,5 km/h
O-NO (3 Bft)
Durchschnitt _ 17,8 C 68 % 1014,0 hPa #0,0 l/m 1,4 km/h (1 Bft) O-SO - 11,1 C 17,8 C 3,9 km/h (1 Bft)
www.klaudt.eu